createdAt,value
2018-06-10T00:00:19.018Z,22.7
2018-06-10T00:01:27.882Z,22.67
2018-06-10T00:02:37.027Z,22.67
2018-06-10T00:03:46.168Z,22.68
2018-06-10T00:04:55.313Z,22.72
2018-06-10T00:06:04.728Z,22.65
2018-06-10T00:07:13.866Z,22.72
2018-06-10T00:08:22.733Z,22.58
2018-06-10T00:09:31.650Z,22.57
2018-06-10T00:10:40.513Z,22.61
2018-06-10T00:11:49.655Z,22.61
2018-06-10T00:12:58.520Z,22.55
2018-06-10T00:14:07.662Z,22.54
2018-06-10T00:15:16.576Z,22.54
2018-06-10T00:16:25.439Z,22.51
2018-06-10T00:17:34.304Z,22.58
2018-06-10T00:18:43.445Z,22.51
2018-06-10T00:19:52.588Z,22.55
2018-06-10T00:21:01.504Z,22.46
2018-06-10T00:22:10.643Z,22.54
2018-06-10T00:23:19.785Z,22.54
2018-06-10T00:24:28.648Z,22.46
2018-06-10T00:25:37.513Z,22.45
2018-06-10T00:26:46.527Z,22.46
2018-06-10T00:27:55.668Z,22.43
2018-06-10T00:29:04.531Z,22.49
2018-06-10T00:30:13.394Z,22.47
2018-06-10T00:31:22.261Z,22.49
2018-06-10T00:32:31.407Z,22.42
2018-06-10T00:33:40.266Z,22.43
2018-06-10T00:34:49.405Z,22.43
2018-06-10T00:35:58.271Z,22.45
2018-06-10T00:37:07.135Z,22.39
2018-06-10T00:38:16.350Z,22.3
2018-06-10T00:39:25.215Z,22.35
2018-06-10T00:40:34.082Z,22.3
2018-06-10T00:41:42.940Z,22.3
2018-06-10T00:42:51.803Z,22.3
2018-06-10T00:44:00.768Z,22.25
2018-06-10T00:45:09.631Z,22.31
2018-06-10T00:46:18.496Z,22.24
2018-06-10T00:47:27.359Z,22.24
2018-06-10T00:48:36.223Z,22.22
2018-06-10T00:49:45.368Z,22.25
2018-06-10T00:50:54.232Z,22.17
2018-06-10T00:52:03.097Z,22.1
2018-06-10T00:53:11.964Z,22.14
2018-06-10T00:54:20.828Z,22.14
2018-06-10T00:55:29.842Z,22.15
2018-06-10T00:56:38.706Z,22.12
2018-06-10T00:57:48.128Z,22.22
2018-06-10T00:58:57.266Z,22.05
2018-06-10T01:00:06.129Z,22.02
2018-06-10T01:01:15.144Z,22.24
2018-06-10T01:02:24.010Z,22.21
2018-06-10T01:03:32.878Z,22.05
2018-06-10T01:04:41.745Z,21.98
2018-06-10T01:05:50.610Z,21.98
2018-06-10T01:06:59.474Z,21.98
2018-06-10T01:08:08.340Z,21.92
2018-06-10T01:09:17.206Z,21.82
2018-06-10T01:10:26.075Z,21.86
2018-06-10T01:11:34.934Z,21.94
2018-06-10T01:12:44.079Z,21.9
2018-06-10T01:13:52.944Z,21.9
2018-06-10T01:15:01.807Z,21.86
2018-06-10T01:16:10.674Z,21.83
2018-06-10T01:17:19.539Z,21.84
2018-06-10T01:18:28.456Z,21.74
2018-06-10T01:19:37.319Z,21.8
2018-06-10T01:20:46.184Z,21.83
2018-06-10T01:21:55.049Z,21.77
2018-06-10T01:23:04.466Z,21.68
2018-06-10T01:24:13.326Z,21.67
2018-06-10T01:25:22.192Z,21.65
2018-06-10T01:26:31.332Z,21.62
2018-06-10T01:27:40.197Z,21.59
2018-06-10T01:28:49.059Z,21.47
2018-06-10T01:29:57.922Z,21.46
2018-06-10T01:31:07.092Z,21.46
2018-06-10T01:32:16.238Z,21.54
2018-06-10T01:33:25.103Z,21.61
2018-06-10T01:34:33.967Z,21.5
2018-06-10T01:35:42.833Z,21.53
2018-06-10T01:36:51.972Z,21.47
2018-06-10T01:38:01.115Z,21.53
2018-06-10T01:39:09.980Z,21.43
2018-06-10T01:40:18.847Z,21.43
2018-06-10T01:41:27.864Z,21.43
2018-06-10T01:42:36.726Z,21.4
2018-06-10T01:43:45.870Z,21.34
2018-06-10T01:44:54.738Z,21.28
2018-06-10T01:46:03.879Z,21.35
2018-06-10T01:47:12.745Z,21.32
2018-06-10T01:48:21.609Z,21.27
2018-06-10T01:49:30.474Z,21.31
2018-06-10T01:50:39.336Z,21.31
2018-06-10T01:51:48.200Z,21.28
2018-06-10T01:52:57.163Z,21.28
2018-06-10T01:54:06.026Z,21.27
2018-06-10T01:55:14.892Z,21.29
2018-06-10T01:56:23.759Z,21.32
2018-06-10T01:57:33.180Z,21.27
2018-06-10T01:58:42.038Z,21.21
2018-06-10T01:59:51.454Z,21.25
2018-06-10T02:01:00.320Z,21.27
2018-06-10T02:02:09.181Z,21.17
2018-06-10T02:03:18.044Z,21.31
2018-06-10T02:04:26.909Z,21.17
2018-06-10T02:05:35.781Z,21.07
2018-06-10T02:06:44.642Z,21.06
2018-06-10T02:07:53.502Z,21.12
2018-06-10T02:09:02.369Z,20.98
2018-06-10T02:10:11.582Z,20.97
2018-06-10T02:11:20.445Z,20.8
2018-06-10T02:12:29.860Z,20.8
2018-06-10T02:13:39.003Z,20.72
2018-06-10T02:14:48.143Z,20.79
2018-06-10T02:15:57.486Z,20.67
2018-06-10T02:17:06.635Z,20.7
2018-06-10T02:18:15.498Z,20.59
2018-06-10T02:19:24.367Z,20.5
2018-06-10T02:20:33.231Z,20.52
2018-06-10T02:21:42.350Z,20.52
2018-06-10T02:22:51.211Z,20.64
2018-06-10T02:24:00.074Z,20.87
2018-06-10T02:25:09.215Z,20.82
2018-06-10T02:26:18.076Z,20.89
2018-06-10T02:27:27.265Z,20.84
2018-06-10T02:28:36.680Z,20.84
2018-06-10T02:29:45.544Z,20.74
2018-06-10T02:30:55.245Z,20.82
2018-06-10T02:32:04.108Z,20.77
2018-06-10T02:33:13.318Z,20.69
2018-06-10T02:34:22.469Z,20.8
2018-06-10T02:35:31.332Z,20.7
2018-06-10T02:36:40.197Z,20.73
2018-06-10T02:37:49.344Z,20.66
2018-06-10T02:38:58.534Z,20.74
2018-06-10T02:40:07.400Z,20.7
2018-06-10T02:41:16.551Z,20.7
2018-06-10T02:42:25.405Z,20.54
2018-06-10T02:43:34.272Z,20.52
2018-06-10T02:44:43.185Z,20.54
2018-06-10T02:45:52.332Z,20.52
2018-06-10T02:47:01.473Z,20.39
2018-06-10T02:48:10.342Z,20.39
2018-06-10T02:49:19.208Z,20.39
2018-06-10T02:50:28.347Z,20.32
2018-06-10T02:51:37.491Z,20.32
2018-06-10T02:52:46.645Z,20.48
2018-06-10T02:53:55.796Z,20.36
2018-06-10T02:55:05.227Z,20.36
2018-06-10T02:56:14.525Z,20.51
2018-06-10T02:57:23.664Z,20.51
2018-06-10T02:58:32.855Z,20.51
2018-06-10T02:59:42.271Z,20.5
2018-06-10T03:00:51.411Z,20.54
2018-06-10T03:02:00.277Z,20.55
2018-06-10T03:03:09.980Z,20.58
2018-06-10T03:04:18.853Z,20.69
2018-06-10T03:05:27.718Z,20.58
2018-06-10T03:06:37.199Z,20.58
2018-06-10T03:07:46.376Z,20.62
2018-06-10T03:08:55.205Z,20.52
2018-06-10T03:10:04.360Z,20.66
2018-06-10T03:11:14.066Z,20.52
2018-06-10T03:12:22.933Z,20.57
2018-06-10T03:13:32.403Z,20.39
2018-06-10T03:14:41.548Z,20.39
2018-06-10T03:15:50.968Z,20.36
2018-06-10T03:16:59.832Z,20.35
2018-06-10T03:18:08.970Z,20.35
2018-06-10T03:19:18.208Z,20.32
2018-06-10T03:20:27.071Z,20.16
2018-06-10T03:21:35.939Z,20.21
2018-06-10T03:22:45.076Z,20.24
2018-06-10T03:23:53.939Z,20.24
2018-06-10T03:25:02.855Z,20.23
2018-06-10T03:26:11.714Z,20.23
2018-06-10T03:27:20.577Z,20.33
2018-06-10T03:28:29.998Z,20.32
2018-06-10T03:29:38.860Z,20.31
2018-06-10T03:30:48.149Z,20.42
2018-06-10T03:31:58.153Z,20.51
2018-06-10T03:33:07.568Z,20.32
2018-06-10T03:34:16.707Z,20.41
2018-06-10T03:35:25.570Z,20.35
2018-06-10T03:36:34.783Z,20.35
2018-06-10T03:37:43.705Z,20.47
2018-06-10T03:38:52.508Z,20.29
2018-06-10T03:40:01.373Z,20.38
2018-06-10T03:41:10.794Z,20.38
2018-06-10T03:42:19.709Z,20.47
2018-06-10T03:43:28.673Z,20.51
2018-06-10T03:44:37.534Z,20.38
2018-06-10T03:45:46.395Z,20.35
2018-06-10T03:46:55.535Z,20.39
2018-06-10T03:48:04.778Z,20.41
2018-06-10T03:49:13.637Z,20.32
2018-06-10T03:50:22.499Z,20.39
2018-06-10T03:51:31.413Z,20.33
2018-06-10T03:52:41.106Z,20.18
2018-06-10T03:53:50.317Z,20.26
2018-06-10T03:54:59.180Z,20.28
2018-06-10T03:56:08.049Z,20.36
2018-06-10T03:57:16.909Z,20.31
2018-06-10T03:58:25.770Z,20.29
2018-06-10T03:59:35.060Z,20.42
2018-06-10T04:00:44.198Z,20.41
2018-06-10T04:01:53.061Z,20.41
2018-06-10T04:03:01.924Z,20.36
2018-06-10T04:04:10.787Z,20.32
2018-06-10T04:05:19.748Z,20.2
2018-06-10T04:06:28.613Z,20.18
2018-06-10T04:07:37.755Z,20.13
2018-06-10T04:08:46.895Z,20.13
2018-06-10T04:09:55.754Z,20.05
2018-06-10T04:11:04.743Z,20.01
2018-06-10T04:12:13.606Z,20.13
2018-06-10T04:13:22.746Z,20.03
2018-06-10T04:14:31.609Z,19.95
2018-06-10T04:15:40.745Z,19.87
2018-06-10T04:16:50.035Z,19.94
2018-06-10T04:17:58.899Z,19.92
2018-06-10T04:19:07.764Z,19.87
2018-06-10T04:20:16.628Z,19.84
2018-06-10T04:21:25.491Z,19.78
2018-06-10T04:22:34.459Z,19.77
2018-06-10T04:23:43.268Z,19.84
2018-06-10T04:24:52.139Z,19.99
2018-06-10T04:26:01.005Z,19.87
2018-06-10T04:27:09.867Z,19.84
2018-06-10T04:28:18.978Z,19.87
2018-06-10T04:29:27.840Z,20.03
2018-06-10T04:30:36.985Z,19.88
2018-06-10T04:31:45.847Z,20.1
2018-06-10T04:32:54.713Z,19.96
2018-06-10T04:34:03.727Z,20.11
2018-06-10T04:35:12.589Z,20.06
2018-06-10T04:36:22.012Z,20.08
2018-06-10T04:37:31.161Z,19.98
2018-06-10T04:38:40.021Z,20.05
2018-06-10T04:39:49.695Z,20.08
2018-06-10T04:40:58.556Z,19.99
2018-06-10T04:42:07.418Z,20.05
2018-06-10T04:43:16.285Z,19.99
2018-06-10T04:44:25.145Z,20.14
2018-06-10T04:45:34.063Z,20.11
2018-06-10T04:46:42.929Z,20.05
2018-06-10T04:47:52.073Z,20.06
2018-06-10T04:49:00.935Z,19.86
2018-06-10T04:50:09.800Z,20.08
2018-06-10T04:51:18.913Z,20.06
2018-06-10T04:52:27.775Z,19.96
2018-06-10T04:53:36.639Z,20.05
2018-06-10T04:54:45.506Z,20.02
2018-06-10T04:55:54.367Z,19.99
2018-06-10T04:57:03.607Z,19.94
2018-06-10T04:58:12.473Z,19.87
2018-06-10T04:59:21.337Z,19.96
2018-06-10T05:00:30.477Z,19.96
2018-06-10T05:01:39.393Z,20.11
2018-06-10T05:02:48.258Z,19.95
2018-06-10T05:03:57.676Z,19.99
2018-06-10T05:05:06.540Z,19.88
2018-06-10T05:06:15.681Z,19.84
2018-06-10T05:07:24.547Z,19.76
2018-06-10T05:08:33.412Z,19.66
2018-06-10T05:09:42.553Z,19.66
2018-06-10T05:10:51.419Z,19.84
2018-06-10T05:12:00.561Z,19.74
2018-06-10T05:13:09.425Z,19.74
2018-06-10T05:14:18.294Z,19.88
2018-06-10T05:15:27.158Z,19.91
2018-06-10T05:16:36.307Z,19.86
2018-06-10T05:17:45.168Z,19.74
2018-06-10T05:18:54.031Z,19.8
2018-06-10T05:20:03.358Z,19.76
2018-06-10T05:21:12.369Z,19.84
2018-06-10T05:22:21.231Z,19.71
2018-06-10T05:23:30.373Z,19.68
2018-06-10T05:24:39.235Z,19.61
2018-06-10T05:25:48.198Z,19.56
2018-06-10T05:26:57.060Z,19.56
2018-06-10T05:28:05.947Z,19.71
2018-06-10T05:29:15.095Z,19.68
2018-06-10T05:30:23.956Z,19.65
2018-06-10T05:31:32.969Z,19.61
2018-06-10T05:32:41.830Z,19.68
2018-06-10T05:33:50.694Z,19.59
2018-06-10T05:34:59.560Z,19.65
2018-06-10T05:36:08.423Z,19.63
2018-06-10T05:37:17.386Z,19.56
2018-06-10T05:38:26.249Z,19.48
2018-06-10T05:39:35.111Z,19.5
2018-06-10T05:40:43.973Z,19.29
2018-06-10T05:41:52.835Z,19.32
2018-06-10T05:43:01.697Z,18.98
2018-06-10T05:44:10.838Z,19.02
2018-06-10T05:45:19.705Z,19.1
2018-06-10T05:46:28.562Z,18.92
2018-06-10T05:47:37.523Z,18.94
2018-06-10T05:48:46.669Z,18.92
2018-06-10T05:49:55.532Z,19.04
2018-06-10T05:51:04.676Z,18.88
2018-06-10T05:52:13.813Z,18.85
2018-06-10T05:53:22.676Z,19.06
2018-06-10T05:54:31.540Z,19.21
2018-06-10T05:55:40.400Z,19.08
2018-06-10T05:56:49.262Z,19.07
2018-06-10T05:57:58.404Z,18.81
2018-06-10T05:59:07.268Z,18.87
2018-06-10T06:00:16.509Z,18.78
2018-06-10T06:01:25.374Z,18.65
2018-06-10T06:02:34.234Z,18.72
2018-06-10T06:03:43.103Z,18.6
2018-06-10T06:04:51.958Z,18.67
2018-06-10T06:06:00.870Z,18.85
2018-06-10T06:07:09.735Z,18.84
2018-06-10T06:08:19.157Z,18.81
2018-06-10T06:09:28.018Z,18.72
2018-06-10T06:10:36.878Z,18.67
2018-06-10T06:11:46.032Z,18.72
2018-06-10T06:12:54.894Z,18.84
2018-06-10T06:14:03.758Z,19.02
2018-06-10T06:15:12.902Z,18.75
2018-06-10T06:16:21.768Z,18.69
2018-06-10T06:17:30.734Z,18.62
2018-06-10T06:18:39.596Z,18.39
2018-06-10T06:19:48.460Z,18.33
2018-06-10T06:20:57.323Z,18.32
2018-06-10T06:22:06.183Z,18.33
2018-06-10T06:23:15.045Z,18.35
2018-06-10T06:24:23.910Z,18.35
2018-06-10T06:25:32.769Z,18.29
2018-06-10T06:26:41.631Z,18.48
2018-06-10T06:27:50.491Z,18.48
2018-06-10T06:28:59.406Z,18.41
2018-06-10T06:30:08.555Z,18.54
2018-06-10T06:31:17.967Z,18.45
2018-06-10T06:32:26.827Z,18.54
2018-06-10T06:33:35.690Z,18.48
2018-06-10T06:34:44.702Z,18.52
2018-06-10T06:35:53.563Z,18.35
2018-06-10T06:37:02.426Z,18.32
2018-06-10T06:38:11.566Z,18.33
2018-06-10T06:39:20.486Z,18.32
2018-06-10T06:40:29.393Z,18.33
2018-06-10T06:41:38.254Z,18.3
2018-06-10T06:42:47.119Z,18.36
2018-06-10T06:43:55.985Z,18.29
2018-06-10T06:45:04.852Z,18.48
2018-06-10T06:46:14.065Z,18.44
2018-06-10T06:47:22.929Z,18.32
2018-06-10T06:48:32.072Z,18.41
2018-06-10T06:49:41.489Z,18.37
2018-06-10T06:50:50.358Z,18.5
2018-06-10T06:51:59.218Z,18.5
2018-06-10T06:53:08.353Z,18.36
2018-06-10T06:54:17.217Z,18.41
2018-06-10T06:55:26.082Z,18.48
2018-06-10T06:56:34.946Z,18.48
2018-06-10T06:57:43.856Z,18.51
2018-06-10T06:58:52.719Z,18.52
2018-06-10T07:00:01.581Z,18.51
2018-06-10T07:01:10.726Z,18.67
2018-06-10T07:02:19.588Z,18.62
2018-06-10T07:03:28.456Z,18.58
2018-06-10T07:04:37.866Z,18.54
2018-06-10T07:05:46.733Z,18.6
2018-06-10T07:06:55.601Z,18.55
2018-06-10T07:08:04.458Z,18.55
2018-06-10T07:09:13.320Z,18.52
2018-06-10T07:10:22.192Z,18.57
2018-06-10T07:11:31.055Z,18.57
2018-06-10T07:12:39.920Z,18.75
2018-06-10T07:13:48.809Z,18.76
2018-06-10T07:14:58.022Z,18.62
2018-06-10T07:16:06.886Z,18.55
2018-06-10T07:17:15.749Z,18.52
2018-06-10T07:18:24.626Z,18.57
2018-06-10T07:19:33.488Z,18.65
2018-06-10T07:20:42.402Z,18.73
2018-06-10T07:21:51.269Z,18.63
2018-06-10T07:23:00.136Z,18.62
2018-06-10T07:24:09.003Z,18.57
2018-06-10T07:25:17.869Z,18.57
2018-06-10T07:26:27.082Z,18.57
2018-06-10T07:27:38.188Z,18.48
2018-06-10T07:28:49.510Z,18.41
2018-06-10T07:29:58.370Z,18.47
2018-06-10T07:31:07.237Z,18.3
2018-06-10T07:32:16.251Z,18.33
2018-06-10T07:33:25.448Z,18.26
2018-06-10T07:34:34.592Z,18.45
2018-06-10T07:35:43.454Z,18.36
2018-06-10T07:36:52.323Z,18.42
2018-06-10T07:38:01.284Z,18.37
2018-06-10T07:39:10.146Z,18.35
2018-06-10T07:40:19.564Z,18.3
2018-06-10T07:41:28.428Z,18.14
2018-06-10T07:42:37.567Z,18.12
2018-06-10T07:43:46.811Z,18.26
2018-06-10T07:44:55.673Z,18.3
2018-06-10T07:46:04.539Z,18.33
2018-06-10T07:47:13.404Z,18.25
2018-06-10T07:48:22.924Z,18.07
2018-06-10T07:49:31.767Z,18.1
2018-06-10T07:50:40.636Z,18.02
2018-06-10T07:51:49.771Z,18.2
2018-06-10T07:52:58.632Z,18.03
2018-06-10T07:54:07.768Z,18.18
2018-06-10T07:55:16.687Z,18.27
2018-06-10T07:56:25.822Z,18.1
2018-06-10T07:57:35.915Z,18.07
2018-06-10T07:58:44.778Z,18.07
2018-06-10T07:59:53.641Z,18.03
2018-06-10T08:01:03.069Z,18.05
2018-06-10T08:02:11.931Z,18.02
2018-06-10T08:03:21.069Z,18.2
2018-06-10T08:04:30.207Z,18.18
2018-06-10T08:05:39.069Z,18.07
2018-06-10T08:06:47.929Z,18.2
2018-06-10T08:07:56.793Z,18.07
2018-06-10T08:09:05.656Z,18.15
2018-06-10T08:10:14.521Z,18.08
2018-06-10T08:11:23.378Z,18.17
2018-06-10T08:12:32.248Z,18.14
2018-06-10T08:13:41.110Z,18.18
2018-06-10T08:14:49.971Z,18.21
2018-06-10T08:15:59.126Z,18.3
2018-06-10T08:17:07.986Z,18.3
2018-06-10T08:18:16.850Z,18.29
2018-06-10T08:19:25.712Z,18.15
2018-06-10T08:20:34.854Z,18.15
2018-06-10T08:21:43.716Z,18.35
2018-06-10T08:22:52.584Z,18.42
2018-06-10T08:24:01.729Z,18.3
2018-06-10T08:25:10.874Z,18.33
2018-06-10T08:26:19.885Z,18.45
2018-06-10T08:27:29.045Z,18.3
2018-06-10T08:28:37.907Z,18.41
2018-06-10T08:29:46.767Z,18.37
2018-06-10T08:30:55.629Z,18.39
2018-06-10T08:32:05.369Z,18.41
2018-06-10T08:33:14.512Z,18.51
2018-06-10T08:34:23.653Z,18.48
2018-06-10T08:35:32.521Z,18.39
2018-06-10T08:36:41.481Z,18.42
2018-06-10T08:37:50.782Z,18.44
2018-06-10T08:38:59.939Z,18.54
2018-06-10T08:40:09.098Z,18.58
2018-06-10T08:41:18.237Z,18.63
2018-06-10T08:42:27.100Z,18.6
2018-06-10T08:43:36.117Z,18.63
2018-06-10T08:44:44.977Z,18.63
2018-06-10T08:45:53.838Z,18.52
2018-06-10T08:47:02.701Z,18.6
2018-06-10T08:48:11.710Z,18.55
2018-06-10T08:49:20.762Z,18.73
2018-06-10T08:50:29.715Z,18.69
2018-06-10T08:51:38.536Z,18.75
2018-06-10T08:52:47.676Z,18.84
2018-06-10T08:53:56.812Z,19.02
2018-06-10T08:55:05.679Z,18.92
2018-06-10T08:56:14.544Z,19.07
2018-06-10T08:57:23.685Z,19
2018-06-10T08:58:32.550Z,19
2018-06-10T08:59:41.830Z,18.99
2018-06-10T09:00:53.676Z,18.99
2018-06-10T09:02:06.248Z,19.11
2018-06-10T09:03:16.768Z,19.18
2018-06-10T09:04:25.633Z,19.19
2018-06-10T09:05:34.495Z,19.06
2018-06-10T09:06:43.899Z,19.13
2018-06-10T09:07:53.700Z,19.04
2018-06-10T09:09:02.811Z,19.22
2018-06-10T09:10:12.117Z,19.19
2018-06-10T09:11:21.264Z,19.08
2018-06-10T09:12:30.128Z,19.23
2018-06-10T09:13:38.994Z,19.26
2018-06-10T09:14:47.859Z,19.28
2018-06-10T09:15:56.718Z,19.18
2018-06-10T09:17:05.582Z,19.16
2018-06-10T09:18:14.448Z,19.18
2018-06-10T09:19:23.309Z,19.26
2018-06-10T09:20:32.454Z,19.18
2018-06-10T09:21:41.321Z,19.4
2018-06-10T09:22:50.462Z,19.41
2018-06-10T09:23:59.329Z,19.4
2018-06-10T09:25:08.193Z,19.41
2018-06-10T09:26:17.054Z,19.51
2018-06-10T09:27:25.917Z,19.73
2018-06-10T09:28:35.064Z,19.66
2018-06-10T09:29:43.928Z,19.59
2018-06-10T09:30:52.794Z,19.48
2018-06-10T09:32:01.764Z,19.68
2018-06-10T09:33:10.910Z,19.68
2018-06-10T09:34:20.350Z,19.56
2018-06-10T09:35:29.270Z,19.68
2018-06-10T09:36:38.080Z,19.65
2018-06-10T09:37:47.295Z,19.69
2018-06-10T09:38:56.439Z,19.62
2018-06-10T09:40:05.308Z,19.77
2018-06-10T09:41:14.176Z,19.8
2018-06-10T09:42:23.055Z,19.95
2018-06-10T09:43:32.365Z,20.08
2018-06-10T09:44:41.227Z,20.01
2018-06-10T09:45:50.366Z,19.96
2018-06-10T09:46:59.231Z,19.95
2018-06-10T09:48:08.097Z,19.92
2018-06-10T09:49:17.224Z,19.91
2018-06-10T09:50:26.089Z,19.92
2018-06-10T09:51:34.955Z,19.98
2018-06-10T09:52:44.375Z,19.95
2018-06-10T09:53:53.240Z,19.95
2018-06-10T09:55:02.170Z,19.91
2018-06-10T09:56:11.403Z,19.86
2018-06-10T09:57:20.280Z,20.01
2018-06-10T09:58:29.144Z,19.88
2018-06-10T09:59:38.008Z,20.13
2018-06-10T10:00:46.877Z,19.98
2018-06-10T10:01:55.747Z,19.88
2018-06-10T10:03:05.170Z,20.05
2018-06-10T10:04:14.122Z,20.02
2018-06-10T10:05:22.996Z,19.86
2018-06-10T10:06:31.863Z,20.11
2018-06-10T10:07:40.727Z,20.05
2018-06-10T10:08:49.932Z,20.18
2018-06-10T10:09:59.054Z,20.18
2018-06-10T10:11:08.202Z,20.2
2018-06-10T10:12:17.104Z,20.17
2018-06-10T10:13:26.269Z,20.23
2018-06-10T10:14:35.256Z,20.26
2018-06-10T10:15:44.541Z,20.33
2018-06-10T10:16:53.407Z,20.28
2018-06-10T10:18:02.273Z,20.31
2018-06-10T10:19:11.140Z,20.33
2018-06-10T10:20:20.057Z,20.33
2018-06-10T10:21:29.065Z,20.33
2018-06-10T10:22:37.930Z,20.35
2018-06-10T10:23:47.077Z,20.41
2018-06-10T10:24:56.224Z,20.21
2018-06-10T10:26:05.273Z,20.2
2018-06-10T10:27:14.147Z,20.21
2018-06-10T10:28:23.021Z,20.28
2018-06-10T10:29:31.927Z,20.18
2018-06-10T10:30:40.802Z,20.2
2018-06-10T10:31:50.082Z,20.21
2018-06-10T10:32:59.227Z,20.32
2018-06-10T10:34:08.374Z,20.29
2018-06-10T10:35:17.242Z,20.35
2018-06-10T10:36:26.107Z,20.39
2018-06-10T10:37:35.226Z,20.36
2018-06-10T10:38:44.092Z,20.52
2018-06-10T10:39:53.237Z,20.42
2018-06-10T10:41:02.125Z,20.38
2018-06-10T10:42:10.990Z,20.38
2018-06-10T10:43:20.007Z,20.41
2018-06-10T10:44:28.999Z,20.35
2018-06-10T10:45:37.866Z,20.39
2018-06-10T10:46:46.733Z,20.66
2018-06-10T10:47:55.601Z,20.69
2018-06-10T10:49:04.668Z,20.39
2018-06-10T10:50:13.692Z,20.35
2018-06-10T10:51:22.566Z,20.38
2018-06-10T10:52:31.708Z,20.43
2018-06-10T10:53:41.007Z,20.51
2018-06-10T10:54:50.024Z,20.58
2018-06-10T10:55:58.967Z,20.62
2018-06-10T10:57:08.311Z,20.74
2018-06-10T10:58:17.528Z,20.82
2018-06-10T10:59:26.399Z,20.69
2018-06-10T11:00:35.262Z,20.7
2018-06-10T11:01:44.125Z,20.85
2018-06-10T11:02:52.991Z,20.84
2018-06-10T11:04:01.856Z,20.77
2018-06-10T11:05:11.046Z,20.77
2018-06-10T11:06:20.273Z,20.89
2018-06-10T11:07:29.139Z,20.94
2018-06-10T11:08:38.302Z,21.03
2018-06-10T11:09:47.450Z,20.97
2018-06-10T11:10:56.439Z,21.1
2018-06-10T11:12:05.810Z,20.98
2018-06-10T11:13:14.676Z,21.28
2018-06-10T11:14:23.830Z,21.34
2018-06-10T11:15:32.694Z,21.14
2018-06-10T11:16:41.844Z,21.34
2018-06-10T11:17:50.861Z,21.04
2018-06-10T11:18:59.731Z,21.14
2018-06-10T11:20:08.599Z,21.13
2018-06-10T11:21:17.464Z,21.22
2018-06-10T11:22:26.606Z,21.35
2018-06-10T11:23:35.902Z,21.35
2018-06-10T11:24:45.048Z,21.4
2018-06-10T11:25:53.916Z,21.38
2018-06-10T11:27:02.795Z,21.44
2018-06-10T11:28:11.945Z,21.59
2018-06-10T11:29:21.384Z,21.58
2018-06-10T11:30:30.251Z,21.72
2018-06-10T11:31:39.395Z,21.68
2018-06-10T11:32:48.260Z,21.61
2018-06-10T11:33:57.125Z,21.69
2018-06-10T11:35:06.319Z,21.77
2018-06-10T11:36:15.187Z,21.84
2018-06-10T11:37:24.334Z,21.8
2018-06-10T11:38:33.200Z,21.72
2018-06-10T11:39:42.066Z,21.62
2018-06-10T11:40:51.083Z,21.79
2018-06-10T11:42:00.236Z,21.82
2018-06-10T11:43:09.103Z,21.79
2018-06-10T11:44:17.970Z,21.86
2018-06-10T11:45:26.837Z,21.88
2018-06-10T11:46:35.705Z,21.96
2018-06-10T11:47:45.401Z,22.03
2018-06-10T11:48:54.548Z,22.12
2018-06-10T11:50:03.690Z,22.21
2018-06-10T11:51:12.833Z,22.27
2018-06-10T11:52:21.848Z,22.18
2018-06-10T11:53:30.993Z,22.18
2018-06-10T11:54:39.857Z,22.33
2018-06-10T11:55:49.008Z,22.43
2018-06-10T11:56:57.875Z,22.47
2018-06-10T11:58:07.107Z,22.47
2018-06-10T11:59:16.213Z,22.58
2018-06-10T12:00:25.353Z,22.61
2018-06-10T12:01:34.221Z,22.54
2018-06-10T12:02:43.091Z,22.54
2018-06-10T12:03:51.963Z,22.54
2018-06-10T12:05:00.833Z,22.52
2018-06-10T12:06:09.700Z,22.49
2018-06-10T12:07:18.567Z,22.43
2018-06-10T12:08:27.434Z,22.64
2018-06-10T12:09:36.363Z,22.75
2018-06-10T12:10:45.238Z,22.77
2018-06-10T12:11:54.435Z,22.91
2018-06-10T12:13:03.300Z,22.88
2018-06-10T12:14:12.194Z,22.94
2018-06-10T12:15:21.513Z,22.91
2018-06-10T12:16:30.388Z,22.94
2018-06-10T12:17:39.262Z,23.02
2018-06-10T12:18:48.126Z,23.05
2018-06-10T12:19:56.995Z,23.1
2018-06-10T12:21:06.322Z,23.19
2018-06-10T12:22:15.188Z,23.19
2018-06-10T12:23:24.060Z,23.25
2018-06-10T12:24:33.430Z,23.51
2018-06-10T12:25:42.499Z,23.6
2018-06-10T12:26:51.471Z,23.63
2018-06-10T12:28:00.344Z,23.76
2018-06-10T12:29:09.212Z,23.87
2018-06-10T12:30:18.085Z,23.98
2018-06-10T12:31:27.621Z,24.02
2018-06-10T12:32:36.541Z,24
2018-06-10T12:33:45.413Z,24.1
2018-06-10T12:34:54.349Z,24.35
2018-06-10T12:36:03.219Z,24.5
2018-06-10T12:37:12.656Z,24.49
2018-06-10T12:38:21.952Z,24.52
2018-06-10T12:39:30.827Z,24.61
2018-06-10T12:40:39.983Z,24.78
2018-06-10T12:41:48.855Z,24.81
2018-06-10T12:42:57.731Z,24.83
2018-06-10T12:44:06.955Z,24.99
2018-06-10T12:45:15.829Z,24.95
2018-06-10T12:46:24.703Z,25.17
2018-06-10T12:47:33.578Z,25.38
2018-06-10T12:48:42.452Z,25.38
2018-06-10T12:49:51.678Z,25.25
2018-06-10T12:51:00.836Z,25
2018-06-10T12:52:09.713Z,25.17
2018-06-10T12:53:18.589Z,25.47
2018-06-10T12:54:27.466Z,25.67
2018-06-10T12:55:36.489Z,25.76
2018-06-10T12:56:45.925Z,25.65
2018-06-10T12:57:55.099Z,25.77
2018-06-10T12:59:04.257Z,25.4
2018-06-10T13:00:13.136Z,25.47
2018-06-10T13:01:22.060Z,25.54
2018-06-10T13:02:31.766Z,25.75
2018-06-10T13:03:40.918Z,25.67
2018-06-10T13:04:49.793Z,25.6
2018-06-10T13:05:58.942Z,25.61
2018-06-10T13:07:08.245Z,25.65
2018-06-10T13:08:17.401Z,25.83
2018-06-10T13:09:26.560Z,25.94
2018-06-10T13:10:35.434Z,26.13
2018-06-10T13:11:44.309Z,26.28
2018-06-10T13:12:53.334Z,26.29
2018-06-10T13:14:02.223Z,26.25
2018-06-10T13:15:11.096Z,26.4
2018-06-10T13:16:20.248Z,26.37
2018-06-10T13:17:29.124Z,26.5
2018-06-10T13:18:37.999Z,26.62
2018-06-10T13:19:47.148Z,26.66
2018-06-10T13:20:56.024Z,26.67
2018-06-10T13:22:05.178Z,26.82
2018-06-10T13:23:14.337Z,26.72
2018-06-10T13:24:23.315Z,26.76
2018-06-10T13:25:32.192Z,26.87
2018-06-10T13:26:41.069Z,26.92
2018-06-10T13:27:49.945Z,26.94
2018-06-10T13:28:58.822Z,26.85
2018-06-10T13:30:07.747Z,26.65
2018-06-10T13:31:16.621Z,26.72
2018-06-10T13:32:25.775Z,26.77
2018-06-10T13:33:34.650Z,26.76
2018-06-10T13:34:43.530Z,26.84
2018-06-10T13:35:52.505Z,26.48
2018-06-10T13:37:01.384Z,26.47
2018-06-10T13:38:10.659Z,26.54
2018-06-10T13:39:22.438Z,26.7
2018-06-10T13:40:31.639Z,26.82
2018-06-10T13:41:40.792Z,26.88
2018-06-10T13:42:49.664Z,26.91
2018-06-10T13:43:58.547Z,27.19
2018-06-10T13:45:07.415Z,27.03
2018-06-10T13:46:16.313Z,26.89
2018-06-10T13:47:25.365Z,26.77
2018-06-10T13:48:34.241Z,26.58
2018-06-10T13:49:43.115Z,26.57
2018-06-10T13:50:51.992Z,26.45
2018-06-10T13:52:00.869Z,26.48
2018-06-10T13:53:09.839Z,26.17
2018-06-10T13:54:18.712Z,26.06
2018-06-10T13:55:27.587Z,25.94
2018-06-10T13:56:36.460Z,25.6
2018-06-10T13:57:45.331Z,25.6
2018-06-10T13:58:54.554Z,25.52
2018-06-10T14:00:03.426Z,25.6
2018-06-10T14:01:12.575Z,25.42
2018-06-10T14:02:21.447Z,25.4
2018-06-10T14:03:30.591Z,25.42
2018-06-10T14:04:39.883Z,25.4
2018-06-10T14:05:48.754Z,25.57
2018-06-10T14:06:57.627Z,25.8
2018-06-10T14:08:07.055Z,25.8
2018-06-10T14:09:15.927Z,25.88
2018-06-10T14:10:24.796Z,26.02
2018-06-10T14:11:34.394Z,25.92
2018-06-10T14:12:43.823Z,26.09
2018-06-10T14:13:52.696Z,26.01
2018-06-10T14:15:01.846Z,26.09
2018-06-10T14:16:11.152Z,26.07
2018-06-10T14:17:20.304Z,26.13
2018-06-10T14:18:29.178Z,26.05
2018-06-10T14:19:38.051Z,26.06
2018-06-10T14:20:47.528Z,26.01
2018-06-10T14:21:56.449Z,25.83
2018-06-10T14:23:05.329Z,25.73
2018-06-10T14:24:14.756Z,25.69
2018-06-10T14:25:23.627Z,25.52
2018-06-10T14:26:32.499Z,25.58
2018-06-10T14:27:41.519Z,25.46
2018-06-10T14:28:50.388Z,25.24
2018-06-10T14:29:59.539Z,25.13
2018-06-10T14:31:08.688Z,25.09
2018-06-10T14:32:17.559Z,25.03
2018-06-10T14:33:26.578Z,25.08
2018-06-10T14:34:35.452Z,25.09
2018-06-10T14:35:44.322Z,25.1
2018-06-10T14:36:53.196Z,25.13
2018-06-10T14:38:02.631Z,25.21
2018-06-10T14:39:11.599Z,25.13
2018-06-10T14:40:20.748Z,25.14
2018-06-10T14:41:29.621Z,25.14
2018-06-10T14:42:38.494Z,25.15
2018-06-10T14:43:47.645Z,25.21
2018-06-10T14:44:56.612Z,25.17
2018-06-10T14:46:05.482Z,25.32
2018-06-10T14:47:14.355Z,25.42
2018-06-10T14:48:23.504Z,25.52
2018-06-10T14:49:32.727Z,25.73
2018-06-10T14:50:42.079Z,25.83
2018-06-10T14:51:50.949Z,25.94